createdAt,value
2018-05-14T00:02:03.090Z,99.90
2018-05-14T00:04:29.959Z,99.90
2018-05-14T00:06:56.909Z,99.90
2018-05-14T00:09:32.048Z,99.90
2018-05-14T00:12:09.633Z,99.90
2018-05-14T00:14:42.195Z,99.90
2018-05-14T00:17:23.654Z,99.90
2018-05-14T00:19:51.492Z,99.90
2018-05-14T00:22:18.403Z,99.90
2018-05-14T00:24:45.256Z,99.90
2018-05-14T00:27:18.055Z,99.90
2018-05-14T00:29:54.810Z,99.90
2018-05-14T00:32:36.948Z,99.90
2018-05-14T00:35:04.793Z,99.90
2018-05-14T00:37:31.747Z,99.90
2018-05-14T00:40:09.039Z,99.90
2018-05-14T00:42:44.745Z,99.90
2018-05-14T00:45:12.259Z,99.90
2018-05-14T00:47:47.449Z,99.90
2018-05-14T00:50:24.951Z,99.90
2018-05-14T00:52:52.392Z,99.90
2018-05-14T00:55:21.245Z,99.90
2018-05-14T00:57:54.880Z,99.90
2018-05-14T01:00:28.919Z,99.90
2018-05-14T01:03:02.627Z,99.90
2018-05-14T01:05:29.921Z,99.90
2018-05-14T01:08:01.696Z,99.90
2018-05-14T01:10:29.300Z,99.90
2018-05-14T01:12:56.201Z,99.90
2018-05-14T01:15:26.999Z,99.90
2018-05-14T01:18:02.404Z,99.90
2018-05-14T01:20:29.870Z,99.90
2018-05-14T01:23:07.852Z,99.90
2018-05-14T01:25:34.773Z,99.90
2018-05-14T01:28:12.512Z,99.90
2018-05-14T01:30:53.716Z,99.90
2018-05-14T01:33:31.029Z,99.90
2018-05-14T01:35:58.652Z,99.90
2018-05-14T01:38:27.916Z,99.90
2018-05-14T01:41:04.296Z,99.90
2018-05-14T01:43:32.073Z,99.90
2018-05-14T01:46:11.973Z,99.90
2018-05-14T01:48:39.698Z,99.90
2018-05-14T01:51:06.666Z,99.90
2018-05-14T01:53:33.656Z,99.90
2018-05-14T01:56:00.551Z,99.90
2018-05-14T01:58:27.485Z,99.90
2018-05-14T02:00:55.870Z,99.90
2018-05-14T02:03:28.185Z,99.90
2018-05-14T02:05:55.112Z,99.90
2018-05-14T02:08:22.024Z,99.90
2018-05-14T02:10:48.943Z,99.90
2018-05-14T02:13:15.804Z,99.90
2018-05-14T02:15:43.467Z,99.90
2018-05-14T02:18:11.082Z,99.90
2018-05-14T02:20:38.004Z,99.90
2018-05-14T02:23:04.857Z,99.90
2018-05-14T02:25:39.897Z,99.90
2018-05-14T02:28:06.826Z,99.90
2018-05-14T02:30:33.692Z,99.90
2018-05-14T02:33:11.422Z,99.90
2018-05-14T02:35:40.388Z,99.90
2018-05-14T02:38:13.234Z,99.90
2018-05-14T02:40:40.213Z,99.90
2018-05-14T02:43:07.169Z,99.90
2018-05-14T02:45:34.094Z,99.90
2018-05-14T02:48:01.117Z,99.90
2018-05-14T02:50:33.637Z,99.90
2018-05-14T02:53:00.632Z,99.90
2018-05-14T02:55:28.230Z,99.90
2018-05-14T02:57:55.163Z,99.90
2018-05-14T03:00:22.812Z,99.90
2018-05-14T03:02:50.407Z,99.90
2018-05-14T03:05:17.325Z,99.90
2018-05-14T03:07:53.866Z,99.90
2018-05-14T03:10:29.036Z,99.90
2018-05-14T03:12:56.421Z,99.90
2018-05-14T03:15:23.302Z,99.90
2018-05-14T03:17:50.323Z,99.90
2018-05-14T03:20:17.157Z,99.90
2018-05-14T03:22:44.070Z,99.90
2018-05-14T03:25:20.405Z,99.90
2018-05-14T03:27:58.301Z,99.90
2018-05-14T03:30:32.072Z,99.90
2018-05-14T03:33:10.001Z,99.90
2018-05-14T03:35:37.539Z,99.90
2018-05-14T03:38:04.474Z,99.90
2018-05-14T03:40:31.328Z,99.90
2018-05-14T03:42:58.265Z,99.90
2018-05-14T03:45:25.112Z,99.90
2018-05-14T03:47:51.966Z,99.90
2018-05-14T03:50:18.891Z,99.90
2018-05-14T03:52:45.814Z,99.90
2018-05-14T03:55:13.492Z,99.90
2018-05-14T03:57:40.425Z,99.90
2018-05-14T04:00:20.281Z,99.90
2018-05-14T04:02:59.323Z,99.90
2018-05-14T04:05:39.430Z,99.90
2018-05-14T04:08:06.296Z,99.90
2018-05-14T04:10:33.978Z,99.90
2018-05-14T04:13:09.354Z,99.90
2018-05-14T04:15:45.836Z,99.90
2018-05-14T04:18:13.314Z,99.90
2018-05-14T04:20:40.247Z,99.90
2018-05-14T04:23:07.191Z,99.90
2018-05-14T04:25:34.132Z,99.90
2018-05-14T04:28:01.782Z,99.90
2018-05-14T04:30:28.709Z,99.90
2018-05-14T04:32:55.558Z,99.90
2018-05-14T04:35:26.665Z,99.90
2018-05-14T04:37:54.862Z,99.90
2018-05-14T04:40:22.677Z,99.90
2018-05-14T04:42:52.328Z,99.90
2018-05-14T04:45:19.461Z,99.90
2018-05-14T04:47:46.414Z,99.90
2018-05-14T04:50:14.080Z,99.90
2018-05-14T04:52:41.745Z,99.90
2018-05-14T04:55:09.436Z,99.90
2018-05-14T04:57:36.354Z,99.90
2018-05-14T05:00:03.318Z,99.90
2018-05-14T05:02:30.231Z,99.90
2018-05-14T05:04:57.172Z,99.90
2018-05-14T05:07:24.162Z,99.90
2018-05-14T05:09:51.017Z,99.90
2018-05-14T05:12:17.938Z,99.90
2018-05-14T05:14:44.792Z,99.90
2018-05-14T05:17:11.808Z,99.90
2018-05-14T05:19:38.659Z,99.90
2018-05-14T05:22:05.606Z,99.90
2018-05-14T05:24:33.294Z,99.90
2018-05-14T05:27:00.182Z,99.90
2018-05-14T05:29:27.111Z,99.90
2018-05-14T05:31:54.149Z,99.90
2018-05-14T05:34:21.086Z,99.90
2018-05-14T05:36:48.039Z,99.90
2018-05-14T05:39:15.022Z,99.90
2018-05-14T05:41:41.902Z,99.90
2018-05-14T05:44:09.653Z,99.90
2018-05-14T05:46:36.524Z,99.90
2018-05-14T05:49:03.462Z,99.90
2018-05-14T05:51:31.150Z,99.90
2018-05-14T05:53:58.019Z,99.90
2018-05-14T05:56:24.946Z,99.90
2018-05-14T05:58:51.900Z,99.90
2018-05-14T06:01:18.909Z,99.90
2018-05-14T06:03:45.798Z,99.90
2018-05-14T06:06:12.734Z,99.90
2018-05-14T06:08:39.620Z,99.90
2018-05-14T06:11:07.270Z,99.90
2018-05-14T06:13:34.217Z,99.90
2018-05-14T06:16:01.106Z,99.90
2018-05-14T06:18:28.087Z,99.90
2018-05-14T06:20:54.950Z,99.90
2018-05-14T06:23:21.834Z,99.90
2018-05-14T06:25:49.550Z,99.90
2018-05-14T06:28:16.490Z,99.90
2018-05-14T06:30:43.441Z,99.90
2018-05-14T06:33:10.385Z,99.90
2018-05-14T06:35:37.300Z,99.90
2018-05-14T06:38:04.300Z,99.90
2018-05-14T06:40:31.178Z,99.90
2018-05-14T06:42:58.847Z,99.90
2018-05-14T06:45:25.832Z,99.90
2018-05-14T06:47:52.760Z,99.90
2018-05-14T06:50:19.709Z,99.90
2018-05-14T06:52:46.648Z,99.90
2018-05-14T06:55:13.590Z,99.90
2018-05-14T06:57:40.666Z,99.90
2018-05-14T07:00:07.459Z,99.90
2018-05-14T07:02:35.134Z,99.90
2018-05-14T07:05:02.041Z,99.90
2018-05-14T07:07:29.022Z,99.90
2018-05-14T07:09:55.926Z,99.90
2018-05-14T07:12:22.873Z,99.90
2018-05-14T07:14:49.766Z,99.90
2018-05-14T07:17:16.701Z,99.90
2018-05-14T07:19:44.316Z,99.90
2018-05-14T07:22:11.269Z,99.90
2018-05-14T07:24:38.216Z,99.90
2018-05-14T07:27:05.166Z,99.90
2018-05-14T07:29:32.103Z,99.90
2018-05-14T07:31:59.019Z,99.90
2018-05-14T07:34:26.070Z,99.90
2018-05-14T07:36:53.007Z,99.90
2018-05-14T07:39:20.083Z,99.90
2018-05-14T07:41:46.911Z,99.90
2018-05-14T07:44:13.902Z,99.90
2018-05-14T07:46:41.538Z,99.90
2018-05-14T07:49:08.505Z,99.90
2018-05-14T07:51:35.410Z,99.90
2018-05-14T07:54:02.298Z,99.90
2018-05-14T07:56:29.976Z,99.90
2018-05-14T07:58:57.329Z,99.90
2018-05-14T08:01:25.300Z,99.90
2018-05-14T08:03:52.275Z,99.90
2018-05-14T08:06:19.252Z,99.90
2018-05-14T08:08:46.245Z,99.90
2018-05-14T08:11:13.884Z,99.90
2018-05-14T08:13:40.839Z,99.90
2018-05-14T08:16:07.722Z,99.90
2018-05-14T08:18:34.722Z,99.90
2018-05-14T08:21:01.703Z,99.90
2018-05-14T08:23:29.324Z,99.90
2018-05-14T08:25:56.248Z,99.90
2018-05-14T08:28:23.198Z,99.90
2018-05-14T08:30:50.122Z,99.90
2018-05-14T08:33:17.146Z,99.90
2018-05-14T08:35:44.764Z,99.90
2018-05-14T08:38:11.703Z,99.90
2018-05-14T08:40:38.635Z,99.90
2018-05-14T08:43:05.599Z,99.90
2018-05-14T08:45:32.836Z,99.90
2018-05-14T08:47:59.614Z,99.90
2018-05-14T08:50:26.541Z,99.90
2018-05-14T08:52:53.510Z,99.90
2018-05-14T08:55:20.407Z,99.90
2018-05-14T08:57:47.305Z,99.90
2018-05-14T09:00:14.246Z,99.90
2018-05-14T09:02:41.205Z,99.90
2018-05-14T09:05:08.188Z,99.90
2018-05-14T09:07:35.057Z,99.90
2018-05-14T09:10:01.937Z,99.90
2018-05-14T09:12:28.860Z,99.90
2018-05-14T09:14:56.754Z,99.90
2018-05-14T09:17:23.654Z,99.90
2018-05-14T09:19:50.601Z,99.90
2018-05-14T09:22:17.507Z,99.90
2018-05-14T09:24:44.383Z,99.90
2018-05-14T09:27:11.318Z,99.90
2018-05-14T09:29:38.203Z,99.90
2018-05-14T09:32:05.164Z,99.90
2018-05-14T09:34:32.229Z,99.90
2018-05-14T09:36:59.834Z,99.90
2018-05-14T09:39:26.851Z,99.90
2018-05-14T09:41:55.443Z,99.90
2018-05-14T09:44:22.336Z,99.90
2018-05-14T09:46:49.288Z,99.90
2018-05-14T09:49:16.214Z,99.90
2018-05-14T09:51:43.175Z,99.90
2018-05-14T09:54:10.065Z,99.90
2018-05-14T09:56:37.682Z,99.90
2018-05-14T09:59:04.609Z,99.90
2018-05-14T10:01:31.544Z,99.90
2018-05-14T10:03:58.478Z,99.90
2018-05-14T10:06:25.354Z,99.90
2018-05-14T10:08:52.306Z,99.90
2018-05-14T10:11:19.198Z,99.90
2018-05-14T10:13:46.213Z,99.90
2018-05-14T10:16:13.237Z,99.90
2018-05-14T10:18:40.231Z,99.90
2018-05-14T10:21:07.119Z,99.90
2018-05-14T10:23:34.042Z,99.90
2018-05-14T10:26:01.001Z,99.90
2018-05-14T10:28:27.866Z,99.90
2018-05-14T10:30:54.908Z,99.90
2018-05-14T10:33:21.777Z,99.90
2018-05-14T10:35:48.713Z,99.90
2018-05-14T10:38:15.583Z,99.90
2018-05-14T10:40:42.623Z,99.90
2018-05-14T10:43:09.545Z,99.90
2018-05-14T10:45:36.418Z,99.90
2018-05-14T10:48:03.402Z,99.90
2018-05-14T10:50:31.079Z,99.90
2018-05-14T10:52:58.026Z,99.90
2018-05-14T10:55:24.963Z,99.90
2018-05-14T10:57:51.860Z,99.90
2018-05-14T11:00:18.785Z,99.90
2018-05-14T11:02:45.656Z,99.90
2018-05-14T11:05:12.602Z,99.90
2018-05-14T11:07:39.527Z,99.90
2018-05-14T11:10:06.492Z,99.90
2018-05-14T11:12:33.418Z,99.90
2018-05-14T11:15:00.274Z,99.90
2018-05-14T11:17:27.213Z,99.90
2018-05-14T11:19:54.129Z,99.90
2018-05-14T11:22:20.993Z,99.90
2018-05-14T11:24:47.934Z,99.90
2018-05-14T11:27:14.813Z,99.90
2018-05-14T11:29:41.751Z,99.90
2018-05-14T11:32:08.623Z,99.90
2018-05-14T11:34:36.359Z,99.90
2018-05-14T11:37:03.224Z,99.90
2018-05-14T11:39:30.153Z,99.90
2018-05-14T11:41:57.098Z,99.90
2018-05-14T11:44:23.973Z,99.90
2018-05-14T11:46:50.945Z,99.90
2018-05-14T11:49:17.802Z,99.90
2018-05-14T11:51:44.676Z,99.90
2018-05-14T11:54:11.602Z,99.90
2018-05-14T11:56:38.459Z,99.90
2018-05-14T11:59:05.382Z,99.90
2018-05-14T12:01:33.055Z,99.90
2018-05-14T12:03:59.924Z,99.90
2018-05-14T12:06:26.850Z,99.90
2018-05-14T12:08:58.557Z,99.90
2018-05-14T12:11:25.847Z,99.90
2018-05-14T12:13:52.806Z,99.90
2018-05-14T12:16:19.721Z,99.90
2018-05-14T12:18:46.631Z,99.90
2018-05-14T12:21:15.675Z,99.90
2018-05-14T12:23:42.846Z,99.90
2018-05-14T12:26:10.702Z,99.90
2018-05-14T12:28:39.055Z,99.90
2018-05-14T12:31:09.737Z,99.90
2018-05-14T12:33:37.343Z,99.90
2018-05-14T12:36:04.427Z,99.90
2018-05-14T12:38:33.758Z,99.90
2018-05-14T12:41:03.251Z,99.90
2018-05-14T12:43:30.786Z,99.90
2018-05-14T12:45:57.735Z,99.90
2018-05-14T12:48:26.532Z,99.90
2018-05-14T12:50:53.551Z,99.90
2018-05-14T12:53:22.291Z,99.90
2018-05-14T12:55:49.219Z,99.90
2018-05-14T12:58:16.153Z,99.90
2018-05-14T13:00:44.481Z,99.90
2018-05-14T13:03:12.224Z,99.90
2018-05-14T13:05:39.988Z,99.90
2018-05-14T13:08:07.616Z,99.90
2018-05-14T13:10:34.694Z,99.90
2018-05-14T13:13:01.633Z,99.90
2018-05-14T13:15:30.221Z,99.90
2018-05-14T13:17:58.463Z,99.90
2018-05-14T13:20:26.942Z,99.90
2018-05-14T13:22:57.747Z,99.90
2018-05-14T13:25:25.981Z,99.90
2018-05-14T13:27:52.896Z,99.90
2018-05-14T13:30:20.216Z,99.90
2018-05-14T13:32:47.213Z,99.90
2018-05-14T13:35:16.755Z,99.90
2018-05-14T13:37:43.730Z,99.90
2018-05-14T13:40:10.627Z,99.90
2018-05-14T13:42:37.589Z,99.90
2018-05-14T13:45:04.515Z,99.90
2018-05-14T13:47:31.615Z,99.90
2018-05-14T13:49:59.022Z,99.90
2018-05-14T13:52:30.252Z,99.90
2018-05-14T13:54:58.347Z,99.90
2018-05-14T13:57:26.022Z,99.90
2018-05-14T13:59:52.954Z,99.90
2018-05-14T14:02:19.894Z,99.90
2018-05-14T14:04:46.764Z,99.90
2018-05-14T14:07:22.834Z,99.90
2018-05-14T14:09:59.723Z,99.90
2018-05-14T14:12:32.863Z,99.90
2018-05-14T14:15:00.783Z,99.90
2018-05-14T14:17:41.314Z,99.90
2018-05-14T14:20:09.898Z,99.90
2018-05-14T14:22:37.734Z,99.90
2018-05-14T14:25:06.209Z,99.90
2018-05-14T14:27:41.350Z,99.90
2018-05-14T14:30:12.068Z,99.90
2018-05-14T14:32:41.282Z,99.90
2018-05-14T14:35:13.343Z,99.90
2018-05-14T14:37:46.146Z,99.90
2018-05-14T14:40:14.921Z,99.90
2018-05-14T14:42:45.775Z,99.90
2018-05-14T14:45:14.129Z,99.90
2018-05-14T14:47:45.338Z,99.90
2018-05-14T14:50:14.462Z,99.90
2018-05-14T14:52:46.763Z,99.90
2018-05-14T14:55:24.866Z,99.90
2018-05-14T14:57:58.165Z,99.90
2018-05-14T15:00:30.042Z,99.90
2018-05-14T15:02:57.274Z,99.90
2018-05-14T15:05:24.213Z,99.90
2018-05-14T15:07:53.206Z,99.90
2018-05-14T15:10:20.985Z,99.90
2018-05-14T15:12:47.862Z,99.90
2018-05-14T15:15:14.801Z,99.90
2018-05-14T15:17:41.731Z,99.90
2018-05-14T15:20:09.929Z,99.90
2018-05-14T15:22:38.133Z,99.90
2018-05-14T15:25:05.037Z,99.90
2018-05-14T15:27:31.924Z,99.90
2018-05-14T15:29:58.882Z,99.90
2018-05-14T15:32:25.762Z,99.90
2018-05-14T15:34:52.795Z,99.90
2018-05-14T15:37:20.398Z,99.90
2018-05-14T15:39:47.399Z,99.90
2018-05-14T15:42:17.402Z,99.90
2018-05-14T15:44:48.481Z,99.90
2018-05-14T15:47:15.357Z,99.90
2018-05-14T15:49:42.432Z,99.90
2018-05-14T15:52:09.323Z,99.90
2018-05-14T15:54:45.032Z,99.90
2018-05-14T15:57:23.068Z,99.90
2018-05-14T16:00:06.797Z,99.90
2018-05-14T16:02:34.739Z,99.90
2018-05-14T16:05:01.683Z,99.90
2018-05-14T16:07:28.649Z,99.90
2018-05-14T16:09:56.275Z,99.90
2018-05-14T16:12:25.214Z,99.90
2018-05-14T16:14:52.890Z,99.90
2018-05-14T16:17:19.848Z,99.90
2018-05-14T16:19:47.578Z,99.90
2018-05-14T16:22:15.287Z,99.90
2018-05-14T16:24:49.612Z,99.90
2018-05-14T16:27:19.464Z,99.90
2018-05-14T16:29:48.430Z,99.90
2018-05-14T16:32:15.399Z,99.90
2018-05-14T16:34:42.707Z,99.90
2018-05-14T16:37:09.977Z,99.90
2018-05-14T16:39:37.240Z,99.90
2018-05-14T16:42:04.763Z,99.90
2018-05-14T16:44:32.400Z,99.90
2018-05-14T16:47:00.673Z,99.90
2018-05-14T16:49:27.554Z,99.90
2018-05-14T16:51:55.452Z,99.90
2018-05-14T16:54:26.126Z,99.90
2018-05-14T16:56:58.353Z,99.90
2018-05-14T16:59:28.773Z,99.90
2018-05-14T17:01:55.929Z,99.90
2018-05-14T17:04:25.279Z,99.90
2018-05-14T17:06:52.456Z,99.90
2018-05-14T17:09:20.442Z,99.90
2018-05-14T17:11:47.373Z,99.90
2018-05-14T17:14:15.692Z,99.90
2018-05-14T17:16:44.108Z,99.90
2018-05-14T17:19:11.063Z,99.90
2018-05-14T17:21:38.019Z,99.90
2018-05-14T17:24:05.017Z,99.90
2018-05-14T17:26:31.892Z,99.90
2018-05-14T17:28:58.797Z,99.90
2018-05-14T17:31:25.772Z,99.90
2018-05-14T17:34:05.378Z,99.90
2018-05-14T17:36:47.762Z,99.90
2018-05-14T17:39:15.375Z,99.90
2018-05-14T17:41:45.973Z,99.90
2018-05-14T17:44:13.490Z,99.90
2018-05-14T17:46:41.201Z,99.90
2018-05-14T17:49:08.134Z,99.90
2018-05-14T17:51:35.083Z,99.90
2018-05-14T17:54:02.046Z,99.90
2018-05-14T17:56:28.994Z,99.90
2018-05-14T17:58:55.994Z,99.90
2018-05-14T18:01:23.751Z,99.90
2018-05-14T18:03:50.623Z,99.90
2018-05-14T18:06:17.507Z,99.90
2018-05-14T18:08:44.455Z,99.90
2018-05-14T18:11:11.329Z,99.90
2018-05-14T18:13:38.276Z,99.90
2018-05-14T18:16:05.147Z,99.90
2018-05-14T18:18:32.041Z,99.90
2018-05-14T18:20:59.961Z,99.90
2018-05-14T18:23:27.701Z,99.90
2018-05-14T18:25:54.709Z,99.90
2018-05-14T18:28:21.645Z,99.90
2018-05-14T18:30:48.664Z,99.90
2018-05-14T18:33:21.246Z,99.90
2018-05-14T18:35:51.092Z,99.90
2018-05-14T18:38:18.112Z,99.90
2018-05-14T18:40:45.094Z,99.90
2018-05-14T18:43:12.037Z,99.90
2018-05-14T18:45:39.298Z,99.90
2018-05-14T18:48:07.881Z,99.90
2018-05-14T18:50:37.616Z,99.90
2018-05-14T18:53:05.302Z,99.90
2018-05-14T18:55:33.232Z,99.90
2018-05-14T18:58:00.103Z,99.90
2018-05-14T19:00:27.116Z,99.90
2018-05-14T19:02:55.031Z,99.90
2018-05-14T19:05:22.354Z,99.90
2018-05-14T19:07:49.553Z,99.90
2018-05-14T19:10:29.399Z,99.90
2018-05-14T19:12:56.657Z,99.90
2018-05-14T19:15:30.506Z,99.90
2018-05-14T19:17:59.489Z,99.90
2018-05-14T19:20:26.515Z,99.90
2018-05-14T19:23:00.102Z,99.90
2018-05-14T19:25:31.124Z,99.90
2018-05-14T19:28:04.224Z,99.90
2018-05-14T19:30:31.107Z,99.90
2018-05-14T19:33:01.087Z,99.90
2018-05-14T19:35:35.346Z,99.90
2018-05-14T19:38:03.051Z,99.90
2018-05-14T19:40:37.700Z,99.90
2018-05-14T19:43:12.095Z,99.90
2018-05-14T19:45:39.494Z,99.90
2018-05-14T19:48:07.212Z,99.90
2018-05-14T19:50:34.158Z,99.90
2018-05-14T19:53:01.046Z,99.90
2018-05-14T19:55:28.731Z,99.90
2018-05-14T19:57:56.435Z,99.90
2018-05-14T20:00:23.301Z,99.90
2018-05-14T20:02:55.292Z,99.90
2018-05-14T20:05:23.153Z,99.90
2018-05-14T20:07:51.536Z,99.90
2018-05-14T20:10:23.181Z,99.90
2018-05-14T20:12:55.169Z,99.90
2018-05-14T20:15:22.213Z,99.90
2018-05-14T20:17:49.882Z,99.90
2018-05-14T20:20:18.101Z,99.90
2018-05-14T20:22:45.560Z,99.90
2018-05-14T20:25:12.505Z,99.90
2018-05-14T20:27:43.293Z,99.90
2018-05-14T20:30:10.426Z,99.90
2018-05-14T20:32:38.699Z,99.90
2018-05-14T20:35:06.419Z,99.90
2018-05-14T20:37:33.514Z,99.90
2018-05-14T20:40:00.385Z,99.90
2018-05-14T20:42:30.520Z,99.90
2018-05-14T20:44:58.258Z,99.90
2018-05-14T20:47:25.937Z,99.90
2018-05-14T20:49:52.801Z,99.90
2018-05-14T20:52:19.747Z,99.90
2018-05-14T20:54:48.027Z,99.90
2018-05-14T20:57:18.770Z,99.90
2018-05-14T20:59:46.251Z,99.90
2018-05-14T21:02:14.191Z,99.90
2018-05-14T21:04:41.185Z,99.90
2018-05-14T21:07:09.130Z,99.90
2018-05-14T21:09:36.965Z,99.90
2018-05-14T21:12:03.923Z,99.90
2018-05-14T21:14:31.821Z,99.90
2018-05-14T21:16:58.733Z,99.90
2018-05-14T21:19:25.675Z,99.60
2018-05-14T21:21:52.610Z,99.70
2018-05-14T21:24:19.908Z,99.70
2018-05-14T21:26:46.921Z,99.50
2018-05-14T21:29:16.464Z,99.30
2018-05-14T21:31:43.474Z,98.90
2018-05-14T21:34:21.863Z,98.60
2018-05-14T21:36:49.250Z,98.70
2018-05-14T21:39:16.178Z,98.30
2018-05-14T21:41:43.047Z,97.90
2018-05-14T21:44:10.217Z,98.40
2018-05-14T21:46:37.335Z,98.00
2018-05-14T21:49:04.451Z,98.40
2018-05-14T21:51:32.893Z,97.90
2018-05-14T21:54:01.019Z,98.10
2018-05-14T21:56:31.896Z,98.00
2018-05-14T21:58:59.634Z,98.00
2018-05-14T22:01:26.511Z,97.90
2018-05-14T22:03:54.485Z,97.80
2018-05-14T22:06:21.753Z,97.70
2018-05-14T22:08:48.687Z,97.70
2018-05-14T22:11:15.639Z,97.90
2018-05-14T22:13:42.599Z,97.70
2018-05-14T22:16:09.482Z,98.40
2018-05-14T22:18:36.423Z,98.00
2018-05-14T22:21:04.126Z,98.30
2018-05-14T22:23:30.990Z,98.20
2018-05-14T22:25:57.918Z,98.50
2018-05-14T22:28:24.786Z,98.20
2018-05-14T22:30:51.710Z,98.10
2018-05-14T22:33:18.664Z,98.10
2018-05-14T22:35:45.655Z,98.10
2018-05-14T22:38:13.266Z,98.20
2018-05-14T22:40:40.280Z,98.20
2018-05-14T22:43:07.220Z,98.30
2018-05-14T22:45:34.080Z,98.40
2018-05-14T22:48:01.023Z,98.40
2018-05-14T22:50:27.886Z,98.70
2018-05-14T22:52:54.821Z,98.20
2018-05-14T22:55:21.710Z,98.20
2018-05-14T22:57:48.646Z,98.20
2018-05-14T23:00:22.410Z,98.20
2018-05-14T23:02:49.351Z,98.00
2018-05-14T23:05:16.444Z,98.00
2018-05-14T23:07:43.459Z,98.00
2018-05-14T23:10:10.348Z,98.10
2018-05-14T23:12:37.282Z,98.00
2018-05-14T23:15:04.203Z,98.10
2018-05-14T23:17:31.135Z,98.30
2018-05-14T23:19:58.010Z,98.20
2018-05-14T23:22:37.074Z,98.00
2018-05-14T23:25:04.017Z,98.20
2018-05-14T23:27:30.967Z,98.20
2018-05-14T23:29:57.883Z,98.40
2018-05-14T23:32:24.747Z,98.30
2018-05-14T23:34:51.670Z,98.20
2018-05-14T23:37:18.537Z,98.40
2018-05-14T23:39:45.509Z,98.40
2018-05-14T23:42:13.178Z,98.30
2018-05-14T23:44:40.978Z,98.40
2018-05-14T23:47:07.838Z,98.40
2018-05-14T23:49:34.772Z,98.50
2018-05-14T23:52:01.650Z,98.50
2018-05-14T23:54:28.574Z,98.50
2018-05-14T23:56:55.440Z,98.90
2018-05-14T23:59:22.401Z,98.60
